createdAt,value
2018-10-16T00:02:25.121Z,18.30
2018-10-16T00:07:27.285Z,19.10
2018-10-16T00:12:29.425Z,19.67
2018-10-16T00:17:31.543Z,21.27
2018-10-16T00:22:33.691Z,20.07
2018-10-16T00:27:35.836Z,19.30
2018-10-16T00:32:38.377Z,20.07
2018-10-16T00:37:40.468Z,20.93
2018-10-16T00:42:42.590Z,20.67
2018-10-16T00:47:44.741Z,18.90
2018-10-16T00:52:46.881Z,21.27
2018-10-16T00:57:49.024Z,19.30
2018-10-16T01:02:51.872Z,20.47
2018-10-16T01:07:54.008Z,20.93
2018-10-16T01:12:56.214Z,21.47
2018-10-16T01:17:58.342Z,21.57
2018-10-16T01:23:00.474Z,21.20
2018-10-16T01:28:02.645Z,19.07
2018-10-16T01:33:04.803Z,20.00
2018-10-16T01:38:06.906Z,21.80
2018-10-16T01:43:09.022Z,21.53
2018-10-16T01:48:11.188Z,23.60
2018-10-16T01:53:13.311Z,23.40
2018-10-16T01:58:15.450Z,21.27
2018-10-16T02:03:17.574Z,22.47
2018-10-16T02:08:19.704Z,24.80
2018-10-16T02:13:21.847Z,23.50
2018-10-16T02:18:24.002Z,22.87
2018-10-16T02:23:26.115Z,21.23
2018-10-16T02:28:28.231Z,22.13
2018-10-16T02:33:30.333Z,22.30
2018-10-16T02:38:32.433Z,22.63
2018-10-16T02:43:34.526Z,21.50
2018-10-16T02:48:37.355Z,22.80
2018-10-16T02:53:39.577Z,23.53
2018-10-16T02:58:41.686Z,21.60
2018-10-16T03:03:43.821Z,21.10
2018-10-16T03:08:45.935Z,24.27
2018-10-16T03:13:48.082Z,24.27
2018-10-16T03:18:50.247Z,22.07
2018-10-16T03:23:52.366Z,19.60
2018-10-16T03:28:54.488Z,23.23
2018-10-16T03:33:56.648Z,20.03
2018-10-16T03:38:58.746Z,21.40
2018-10-16T03:44:01.700Z,20.43
2018-10-16T03:49:04.186Z,23.23
2018-10-16T03:54:06.675Z,24.87
2018-10-16T03:59:08.806Z,24.30
2018-10-16T04:04:10.921Z,25.40
2018-10-16T04:09:13.036Z,23.90
2018-10-16T04:14:15.186Z,26.00
2018-10-16T04:19:17.307Z,23.60
2018-10-16T04:24:19.415Z,25.00
2018-10-16T04:29:21.656Z,22.93
2018-10-16T04:34:23.674Z,25.67
2018-10-16T04:39:25.826Z,27.83
2018-10-16T04:44:27.930Z,27.20
2018-10-16T04:49:30.079Z,26.27
2018-10-16T04:54:32.206Z,24.73
2018-10-16T04:59:34.369Z,27.48
2018-10-16T05:04:36.541Z,25.33
2018-10-16T05:09:38.668Z,27.57
2018-10-16T05:14:40.790Z,27.80
2018-10-16T05:19:42.930Z,29.17
2018-10-16T05:24:45.071Z,27.43
2018-10-16T05:29:47.225Z,26.03
2018-10-16T05:34:49.351Z,25.30
2018-10-16T05:39:51.462Z,26.20
2018-10-16T05:44:53.643Z,26.50
2018-10-16T05:49:55.803Z,26.27
2018-10-16T05:54:57.992Z,26.20
2018-10-16T06:00:11.989Z,26.83
2018-10-16T06:05:14.148Z,26.60
2018-10-16T06:10:16.286Z,26.10
2018-10-16T06:15:18.462Z,26.13
2018-10-16T06:20:20.574Z,24.87
2018-10-16T06:25:22.755Z,24.10
2018-10-16T06:30:25.043Z,28.97
2018-10-16T06:35:27.049Z,26.33
2018-10-16T06:40:29.264Z,27.47
2018-10-16T06:45:31.354Z,26.93
2018-10-16T06:50:33.538Z,27.13
2018-10-16T06:55:35.723Z,25.50
2018-10-16T07:00:37.901Z,23.70
2018-10-16T07:05:40.026Z,28.50
2018-10-16T07:10:42.185Z,26.03
2018-10-16T07:15:44.301Z,25.97
2018-10-16T07:20:46.449Z,27.10
2018-10-16T07:25:48.581Z,26.90
2018-10-16T07:30:50.733Z,29.20
2018-10-16T07:35:52.830Z,29.80
2018-10-16T07:40:54.965Z,30.03
2018-10-16T07:45:57.129Z,32.27
2018-10-16T07:50:59.266Z,29.80
2018-10-16T07:56:01.421Z,29.90
2018-10-16T08:01:03.616Z,28.67
2018-10-16T08:06:06.117Z,34.47
2018-10-16T08:11:08.290Z,32.47
2018-10-16T08:16:10.444Z,33.90
2018-10-16T08:21:12.567Z,35.20
2018-10-16T08:26:14.733Z,36.20
2018-10-16T08:31:16.871Z,34.83
2018-10-16T08:36:19.132Z,34.53
2018-10-16T08:41:25.186Z,33.73
2018-10-16T08:46:38.771Z,33.83
2018-10-16T08:51:49.474Z,34.17
2018-10-16T08:56:51.635Z,34.63
2018-10-16T09:01:53.782Z,35.50
2018-10-16T09:06:55.980Z,37.53
2018-10-16T09:11:58.122Z,35.33
2018-10-16T09:17:00.282Z,34.40
2018-10-16T09:22:02.431Z,33.00
2018-10-16T09:27:04.807Z,32.40
2018-10-16T09:32:06.988Z,38.20
2018-10-16T09:37:09.094Z,34.67
2018-10-16T09:42:11.273Z,35.17
2018-10-16T09:47:13.434Z,39.57
2018-10-16T09:52:15.623Z,36.97
2018-10-16T09:57:17.813Z,36.00
2018-10-16T10:02:19.988Z,37.40
2018-10-16T10:07:22.149Z,37.83
2018-10-16T10:12:24.295Z,32.97
2018-10-16T10:17:26.414Z,28.27
2018-10-16T10:22:28.618Z,21.00
2018-10-16T10:27:31.196Z,19.23
2018-10-16T10:32:33.347Z,18.87
2018-10-16T10:37:35.475Z,18.10
2018-10-16T10:42:37.611Z,17.50
2018-10-16T10:47:39.779Z,20.70
2018-10-16T10:52:41.951Z,19.60
2018-10-16T10:57:44.211Z,19.80
2018-10-16T11:02:47.584Z,17.20
2018-10-16T11:07:49.730Z,18.17
2018-10-16T11:12:51.851Z,16.23
2018-10-16T11:17:54.847Z,16.40
2018-10-16T11:22:57.000Z,16.93
2018-10-16T11:27:59.339Z,20.33
2018-10-16T11:33:01.526Z,17.67
2018-10-16T11:38:03.751Z,18.40
2018-10-16T11:43:05.889Z,21.70
2018-10-16T11:48:08.120Z,22.67
2018-10-16T11:53:10.353Z,18.67
2018-10-16T11:58:12.511Z,20.50
2018-10-16T12:03:14.700Z,22.30
2018-10-16T12:08:16.882Z,22.40
2018-10-16T12:13:19.016Z,21.33
2018-10-16T12:19:24.082Z,22.40
2018-10-16T12:24:26.228Z,23.60
2018-10-16T12:29:28.402Z,22.50
2018-10-16T12:34:30.535Z,23.43
2018-10-16T12:39:32.697Z,22.87
2018-10-16T12:44:34.824Z,23.73
2018-10-16T12:49:36.955Z,21.80
2018-10-16T12:54:39.143Z,23.30
2018-10-16T12:59:41.343Z,25.30
2018-10-16T13:04:43.475Z,26.13
2018-10-16T13:09:45.655Z,29.47
2018-10-16T13:14:47.800Z,30.37
2018-10-16T13:19:49.921Z,29.97
2018-10-16T13:24:52.047Z,28.37
2018-10-16T13:29:54.218Z,29.30
2018-10-16T13:34:56.381Z,29.40
2018-10-16T13:39:58.596Z,30.97
2018-10-16T13:45:01.061Z,32.47
2018-10-16T13:50:04.184Z,31.13
2018-10-16T13:55:07.092Z,32.50
2018-10-16T14:00:20.267Z,29.93
2018-10-16T14:05:22.433Z,31.97
2018-10-16T14:10:24.592Z,29.93
2018-10-16T14:15:26.748Z,35.07
2018-10-16T14:20:28.912Z,34.50
2018-10-16T14:25:31.113Z,32.93
2018-10-16T14:30:33.629Z,37.73
2018-10-16T14:35:35.759Z,36.70
2018-10-16T14:40:38.005Z,41.30
2018-10-16T14:45:40.099Z,42.47
2018-10-16T14:50:42.237Z,41.57
2018-10-16T14:55:44.456Z,44.47
2018-10-16T15:00:46.628Z,43.13
2018-10-16T15:05:48.807Z,42.37
2018-10-16T15:10:51.010Z,47.83
2018-10-16T15:15:53.189Z,44.60
2018-10-16T15:20:55.319Z,48.07
2018-10-16T15:25:57.518Z,45.00
2018-10-16T15:30:59.712Z,40.33
2018-10-16T15:36:01.893Z,41.33
2018-10-16T15:41:04.355Z,41.27
2018-10-16T15:46:06.554Z,42.00
2018-10-16T15:51:08.751Z,47.80
2018-10-16T15:56:11.058Z,47.23
2018-10-16T16:01:13.097Z,44.60
2018-10-16T16:06:15.279Z,47.50
2018-10-16T16:11:17.478Z,45.10
2018-10-16T16:16:19.608Z,46.70
2018-10-16T16:21:21.809Z,42.10
2018-10-16T16:26:24.042Z,44.60
2018-10-16T16:31:26.169Z,44.93
2018-10-16T16:36:28.378Z,47.97
2018-10-16T16:41:30.480Z,46.43
2018-10-16T16:46:32.656Z,52.90
2018-10-16T16:51:34.832Z,43.67
2018-10-16T16:56:37.015Z,48.00
2018-10-16T17:01:39.224Z,46.40
2018-10-16T17:06:41.409Z,46.83
2018-10-16T17:11:43.628Z,44.93
2018-10-16T17:16:45.795Z,47.67
2018-10-16T17:21:47.945Z,47.77
2018-10-16T17:26:50.177Z,45.87
2018-10-16T17:31:52.280Z,44.37
2018-10-16T17:36:54.493Z,49.37
2018-10-16T17:41:56.714Z,48.07
2018-10-16T17:46:58.960Z,42.23
2018-10-16T17:52:01.351Z,52.33
2018-10-16T17:57:03.757Z,54.43
2018-10-16T18:02:05.996Z,46.80
2018-10-16T18:07:08.205Z,47.20
2018-10-16T18:12:10.440Z,47.77
2018-10-16T18:17:12.651Z,49.93
2018-10-16T18:22:14.862Z,44.50
2018-10-16T18:27:17.053Z,51.67
2018-10-16T18:32:19.446Z,50.13
2018-10-16T18:37:21.674Z,44.83
2018-10-16T18:42:23.918Z,48.67
2018-10-16T18:47:26.206Z,52.00
2018-10-16T18:52:28.513Z,43.77
2018-10-16T18:57:31.491Z,41.50
2018-10-16T19:02:33.941Z,42.50
2018-10-16T19:07:37.042Z,45.80
2018-10-16T19:12:42.091Z,50.27
2018-10-16T19:17:46.430Z,50.03
2018-10-16T19:22:49.840Z,44.40
2018-10-16T19:27:52.582Z,41.17
2018-10-16T19:32:55.201Z,42.37
2018-10-16T19:37:57.811Z,39.73
2018-10-16T19:43:01.063Z,40.13
2018-10-16T19:48:05.333Z,46.10
2018-10-16T19:53:07.950Z,42.63
2018-10-16T19:58:10.565Z,41.30
2018-10-16T20:03:12.967Z,45.53
2018-10-16T20:08:15.481Z,46.43
2018-10-16T20:13:17.707Z,45.03
2018-10-16T20:18:20.300Z,41.30
2018-10-16T20:23:22.521Z,46.50
2018-10-16T20:28:24.675Z,41.70
2018-10-16T20:33:26.860Z,47.20
2018-10-16T20:38:29.030Z,43.27
2018-10-16T20:43:31.405Z,43.50
2018-10-16T20:48:33.657Z,40.47
2018-10-16T20:53:35.839Z,44.07
2018-10-16T20:58:38.021Z,44.00
2018-10-16T21:03:40.164Z,44.00
2018-10-16T21:08:42.317Z,47.17
2018-10-16T21:13:44.469Z,43.00
2018-10-16T21:18:46.632Z,45.23
2018-10-16T21:23:48.761Z,42.00
2018-10-16T21:28:50.881Z,46.37
2018-10-16T21:33:53.082Z,45.23
2018-10-16T21:38:55.189Z,40.73
2018-10-16T21:43:57.333Z,44.27
2018-10-16T21:48:59.544Z,41.30
2018-10-16T21:54:01.651Z,48.05
2018-10-16T21:59:04.796Z,41.93
2018-10-16T22:04:06.986Z,43.77
2018-10-16T22:09:11.667Z,43.50
2018-10-16T22:14:13.881Z,40.60
2018-10-16T22:19:16.333Z,37.33
2018-10-16T22:24:18.431Z,39.27
2018-10-16T22:29:20.615Z,37.03
2018-10-16T22:34:22.731Z,44.23
2018-10-16T22:39:24.897Z,39.50
2018-10-16T22:44:27.063Z,36.87
2018-10-16T22:49:29.215Z,35.10
2018-10-16T22:54:31.341Z,37.77
2018-10-16T22:59:33.542Z,41.27
2018-10-16T23:04:36.050Z,37.37
2018-10-16T23:09:38.242Z,35.93
2018-10-16T23:14:40.360Z,37.57
2018-10-16T23:19:42.881Z,41.30
2018-10-16T23:24:45.011Z,36.90
2018-10-16T23:29:47.118Z,40.37
2018-10-16T23:34:49.288Z,38.00
2018-10-16T23:39:51.436Z,35.53
2018-10-16T23:44:53.586Z,39.40
2018-10-16T23:49:55.705Z,37.97
2018-10-16T23:54:57.854Z,39.10
2018-10-16T23:59:59.994Z,38.97
